createdAt,value
2022-12-11T00:00:42.479Z,8.40
2022-12-11T00:03:15.595Z,8.40
2022-12-11T00:05:44.322Z,8.30
2022-12-11T00:08:12.479Z,8.20
2022-12-11T00:10:40.493Z,8.20
2022-12-11T00:13:08.528Z,8.20
2022-12-11T00:15:39.110Z,8.30
2022-12-11T00:18:07.311Z,8.30
2022-12-11T00:20:35.366Z,8.20
2022-12-11T00:23:03.330Z,8.30
2022-12-11T00:25:31.357Z,8.40
2022-12-11T00:27:59.396Z,8.40
2022-12-11T00:30:27.391Z,8.40
2022-12-11T00:32:56.735Z,8.40
2022-12-11T00:35:24.781Z,8.30
2022-12-11T00:37:52.773Z,8.20
2022-12-11T00:40:20.792Z,8.20
2022-12-11T00:42:48.802Z,8.20
2022-12-11T00:45:18.885Z,8.20
2022-12-11T00:47:46.892Z,8.20
2022-12-11T00:50:16.446Z,7.90
2022-12-11T00:52:44.591Z,8.10
2022-12-11T00:55:13.689Z,8.40
2022-12-11T00:57:41.737Z,8.20
2022-12-11T01:00:10.976Z,8.40
2022-12-11T01:02:39.054Z,8.20
2022-12-11T01:05:08.350Z,8.40
2022-12-11T01:07:38.025Z,8.30
2022-12-11T01:10:25.063Z,8.20
2022-12-11T01:12:53.669Z,8.10
2022-12-11T01:15:22.983Z,8.10
2022-12-11T01:17:51.196Z,8.10
2022-12-11T01:20:19.520Z,8.20
2022-12-11T01:22:48.995Z,8.20
2022-12-11T01:25:17.071Z,8.20
2022-12-11T01:27:45.110Z,8.20
2022-12-11T01:30:14.282Z,8.30
2022-12-11T01:32:42.360Z,8.40
2022-12-11T01:35:12.393Z,8.40
2022-12-11T01:37:40.640Z,8.30
2022-12-11T01:40:11.438Z,8.30
2022-12-11T01:42:39.513Z,8.30
2022-12-11T01:45:36.505Z,8.30
2022-12-11T01:48:07.573Z,8.30
2022-12-11T01:50:37.512Z,8.10
2022-12-11T01:53:05.946Z,8.20
2022-12-11T01:55:35.418Z,8.20
2022-12-11T01:58:03.634Z,8.30
2022-12-11T02:00:31.737Z,8.30
2022-12-11T02:03:00.124Z,8.40
2022-12-11T02:05:28.164Z,8.40
2022-12-11T02:07:58.081Z,8.30
2022-12-11T02:10:29.483Z,8.20
2022-12-11T02:13:00.703Z,8.30
2022-12-11T02:15:32.773Z,8.20
2022-12-11T02:18:08.423Z,8.20
2022-12-11T02:20:38.454Z,8.20
2022-12-11T02:23:16.187Z,8.20
2022-12-11T02:25:48.348Z,8.20
2022-12-11T02:28:20.045Z,7.90
2022-12-11T02:30:49.912Z,8.30
2022-12-11T02:33:17.994Z,8.30
2022-12-11T02:35:46.079Z,8.40
2022-12-11T02:38:19.461Z,8.40
2022-12-11T02:40:47.666Z,8.30
2022-12-11T02:43:15.729Z,8.20
2022-12-11T02:45:45.090Z,8.00
2022-12-11T02:48:13.053Z,8.10
2022-12-11T02:50:43.772Z,8.10
2022-12-11T02:53:12.311Z,8.20
2022-12-11T02:55:41.152Z,8.20
2022-12-11T02:58:10.480Z,8.20
2022-12-11T03:00:38.478Z,8.10
2022-12-11T03:03:07.844Z,8.30
2022-12-11T03:05:36.201Z,8.40
2022-12-11T03:08:04.295Z,8.30
2022-12-11T03:10:32.347Z,8.30
2022-12-11T03:13:00.442Z,8.30
2022-12-11T03:15:32.237Z,8.30
2022-12-11T03:18:02.132Z,8.30
2022-12-11T03:20:36.097Z,7.90
2022-12-11T03:23:08.001Z,7.90
2022-12-11T03:25:37.077Z,7.90
2022-12-11T03:28:08.049Z,8.10
2022-12-11T03:30:36.591Z,8.20
2022-12-11T03:33:05.642Z,8.10
2022-12-11T03:35:36.091Z,8.20
2022-12-11T03:38:05.062Z,8.30
2022-12-11T03:40:34.003Z,8.40
2022-12-11T03:43:02.045Z,8.30
2022-12-11T03:45:30.046Z,8.30
2022-12-11T03:47:58.167Z,8.20
2022-12-11T03:50:26.415Z,8.10
2022-12-11T03:52:55.822Z,8.10
2022-12-11T03:55:23.885Z,8.10
2022-12-11T03:57:51.921Z,8.00
2022-12-11T04:00:21.208Z,8.10
2022-12-11T04:03:13.361Z,8.10
2022-12-11T04:05:42.773Z,8.20
2022-12-11T04:08:12.301Z,8.30
2022-12-11T04:10:40.315Z,8.30
2022-12-11T04:13:08.427Z,8.40
2022-12-11T04:15:35.606Z,8.40
2022-12-11T04:18:21.383Z,8.30
2022-12-11T04:21:07.083Z,8.10
2022-12-11T04:23:54.072Z,7.90
2022-12-11T04:26:22.179Z,8.00
2022-12-11T04:28:50.505Z,8.10
2022-12-11T04:31:56.398Z,8.20
2022-12-11T04:34:42.133Z,8.20
2022-12-11T04:37:25.362Z,8.20
2022-12-11T04:40:23.200Z,8.30
2022-12-11T04:43:11.070Z,8.30
2022-12-11T04:46:07.527Z,8.30
2022-12-11T04:48:49.273Z,8.20
2022-12-11T04:51:23.619Z,8.10
2022-12-11T04:54:02.636Z,8.10
2022-12-11T04:56:48.926Z,8.00
2022-12-11T04:59:36.465Z,8.10
2022-12-11T05:02:31.383Z,8.20
2022-12-11T05:05:09.812Z,8.10
2022-12-11T05:07:49.260Z,8.10
2022-12-11T05:10:44.505Z,8.30
2022-12-11T05:13:30.098Z,8.30
2022-12-11T05:16:07.525Z,8.20
2022-12-11T05:18:50.617Z,8.30
2022-12-11T05:21:41.929Z,8.20
2022-12-11T05:24:37.406Z,8.20
2022-12-11T05:27:18.475Z,8.00
2022-12-11T05:30:08.082Z,8.00
2022-12-11T05:32:58.165Z,8.10
2022-12-11T05:35:47.036Z,8.00
2022-12-11T05:38:47.972Z,8.20
2022-12-11T05:41:31.608Z,8.10
2022-12-11T05:44:42.680Z,8.20
2022-12-11T05:47:33.199Z,8.30
2022-12-11T05:50:11.135Z,8.30
2022-12-11T05:53:02.493Z,8.20
2022-12-11T05:55:41.549Z,8.10
2022-12-11T05:58:20.562Z,8.10
2022-12-11T06:01:09.889Z,8.10
2022-12-11T06:03:58.045Z,8.10
2022-12-11T06:06:41.790Z,8.10
2022-12-11T06:09:34.132Z,8.10
2022-12-11T06:12:26.162Z,8.00
2022-12-11T06:14:56.398Z,8.20
2022-12-11T06:17:58.440Z,8.30
2022-12-11T06:20:42.177Z,8.30
2022-12-11T06:23:15.572Z,8.20
2022-12-11T06:26:01.159Z,8.20
2022-12-11T06:29:01.918Z,8.00
2022-12-11T06:31:41.680Z,8.00
2022-12-11T06:34:27.928Z,8.00
2022-12-11T06:37:02.097Z,8.00
2022-12-11T06:40:02.158Z,8.00
2022-12-11T06:42:30.736Z,8.10
2022-12-11T06:44:59.814Z,7.90
2022-12-11T06:47:27.955Z,8.30
2022-12-11T06:49:56.000Z,8.30
2022-12-11T06:52:25.933Z,8.20
2022-12-11T06:54:54.473Z,8.10
2022-12-11T06:57:22.567Z,8.00
2022-12-11T06:59:50.562Z,8.00
2022-12-11T07:02:19.507Z,8.00
2022-12-11T07:04:50.516Z,8.00
2022-12-11T07:07:25.491Z,8.10
2022-12-11T07:09:54.904Z,8.10
2022-12-11T07:12:22.942Z,8.10
2022-12-11T07:14:50.911Z,8.10
2022-12-11T07:17:18.938Z,8.20
2022-12-11T07:19:46.958Z,8.30
2022-12-11T07:22:14.954Z,8.30
2022-12-11T07:24:43.176Z,8.30
2022-12-11T07:27:12.592Z,8.30
2022-12-11T07:29:40.641Z,8.00
2022-12-11T07:32:09.027Z,8.10
2022-12-11T07:34:37.734Z,8.00
2022-12-11T07:37:06.059Z,8.00
2022-12-11T07:39:34.180Z,8.00
2022-12-11T07:42:02.220Z,7.90
2022-12-11T07:44:31.610Z,8.00
2022-12-11T07:47:30.188Z,8.00
2022-12-11T07:50:08.538Z,8.10
2022-12-11T07:52:45.105Z,8.10
2022-12-11T07:55:29.560Z,8.20
2022-12-11T07:58:06.749Z,8.30
2022-12-11T08:00:44.962Z,8.20
2022-12-11T08:03:37.499Z,7.90
2022-12-11T08:06:35.768Z,8.00
2022-12-11T08:09:21.346Z,7.90
2022-12-11T08:12:04.806Z,8.00
2022-12-11T08:14:39.733Z,8.00
2022-12-11T08:17:14.079Z,7.90
2022-12-11T08:19:49.821Z,7.90
2022-12-11T08:22:42.018Z,8.20
2022-12-11T08:25:20.560Z,8.10
2022-12-11T08:28:17.733Z,8.20
2022-12-11T08:30:56.071Z,8.20
2022-12-11T08:33:48.473Z,8.10
2022-12-11T08:36:29.548Z,7.90
2022-12-11T08:39:14.630Z,7.90
2022-12-11T08:42:06.911Z,8.10
2022-12-11T08:44:48.599Z,8.00
2022-12-11T08:47:25.224Z,7.90
2022-12-11T08:50:17.366Z,8.10
2022-12-11T08:52:51.680Z,8.10
2022-12-11T08:55:35.224Z,8.20
2022-12-11T08:58:32.121Z,8.30
2022-12-11T09:01:19.819Z,8.30
2022-12-11T09:04:14.382Z,8.00
2022-12-11T09:06:50.759Z,8.10
2022-12-11T09:09:35.205Z,8.10
2022-12-11T09:12:14.039Z,8.10
2022-12-11T09:14:59.824Z,8.10
2022-12-11T09:17:53.704Z,8.20
2022-12-11T09:20:41.435Z,8.20
2022-12-11T09:23:34.081Z,8.30
2022-12-11T09:29:11.612Z,8.30
2022-12-11T09:32:02.498Z,8.30
2022-12-11T09:34:37.947Z,8.20
2022-12-11T09:37:25.270Z,8.20
2022-12-11T09:40:13.103Z,8.10
2022-12-11T09:43:01.550Z,8.10
2022-12-11T09:45:45.075Z,8.10
2022-12-11T09:48:36.888Z,8.00
2022-12-11T09:54:09.199Z,8.10
2022-12-11T09:57:03.600Z,8.20
2022-12-11T09:59:44.253Z,8.30
2022-12-11T10:02:35.136Z,8.30
2022-12-11T10:05:43.986Z,8.30
2022-12-11T10:08:43.002Z,8.20
2022-12-11T10:11:39.368Z,8.10
2022-12-11T10:14:27.349Z,8.10
2022-12-11T10:17:09.381Z,8.00
2022-12-11T10:19:51.579Z,8.10
2022-12-11T10:22:48.389Z,8.10
2022-12-11T10:25:32.958Z,8.20
2022-12-11T10:28:21.191Z,8.20
2022-12-11T10:31:14.741Z,8.30
2022-12-11T10:34:19.491Z,8.30
2022-12-11T10:37:00.671Z,8.30
2022-12-11T10:39:38.796Z,8.10
2022-12-11T10:42:28.364Z,7.80
2022-12-11T10:45:22.966Z,8.10
2022-12-11T10:48:18.724Z,8.10
2022-12-11T10:51:06.356Z,8.20
2022-12-11T10:54:02.614Z,8.10
2022-12-11T10:57:13.140Z,8.20
2022-12-11T11:00:09.374Z,8.30
2022-12-11T11:02:53.982Z,8.30
2022-12-11T11:05:51.513Z,8.30
2022-12-11T11:08:25.232Z,8.20
2022-12-11T11:14:19.212Z,8.10
2022-12-11T11:17:01.315Z,8.10
2022-12-11T11:19:48.018Z,8.20
2022-12-11T11:22:29.091Z,8.00
2022-12-11T11:25:16.414Z,7.90
2022-12-11T11:27:55.956Z,8.10
2022-12-11T11:30:54.860Z,8.30
2022-12-11T11:33:43.402Z,8.30
2022-12-11T11:36:34.207Z,8.20
2022-12-11T11:39:20.249Z,8.30
2022-12-11T11:42:05.173Z,8.20
2022-12-11T11:44:45.836Z,8.20
2022-12-11T11:47:28.195Z,8.20
2022-12-11T11:50:14.246Z,8.10
2022-12-11T11:53:04.527Z,8.10
2022-12-11T11:55:54.501Z,8.10
2022-12-11T11:58:31.685Z,8.20
2022-12-11T12:01:11.524Z,8.20
2022-12-11T12:04:05.101Z,8.10
2022-12-11T12:07:06.042Z,8.40
2022-12-11T12:09:59.869Z,8.40
2022-12-11T12:12:50.516Z,8.40
2022-12-11T12:15:53.703Z,8.20
2022-12-11T12:18:40.119Z,8.30
2022-12-11T12:21:38.854Z,8.20
2022-12-11T12:24:19.419Z,8.20
2022-12-11T12:27:49.911Z,8.30
2022-12-11T12:30:22.432Z,8.30
2022-12-11T12:33:14.874Z,8.20
2022-12-11T12:36:07.351Z,8.40
2022-12-11T12:38:54.412Z,8.40
2022-12-11T12:41:49.227Z,8.40
2022-12-11T12:44:48.002Z,8.30
2022-12-11T12:47:39.896Z,8.30
2022-12-11T12:50:46.530Z,8.30
2022-12-11T12:53:22.189Z,8.30
2022-12-11T12:56:02.685Z,8.30
2022-12-11T13:01:50.749Z,8.30
2022-12-11T13:04:56.432Z,8.20
2022-12-11T13:07:46.122Z,8.40
2022-12-11T13:10:39.488Z,8.40
2022-12-11T13:13:40.530Z,8.40
2022-12-11T13:16:51.404Z,8.30
2022-12-11T13:19:43.067Z,8.20
2022-12-11T13:22:57.079Z,8.00
2022-12-11T13:25:41.657Z,8.20
2022-12-11T13:28:50.770Z,8.10
2022-12-11T13:31:48.814Z,8.20
2022-12-11T13:34:58.810Z,8.30
2022-12-11T13:38:02.817Z,8.40
2022-12-11T13:40:57.816Z,8.40
2022-12-11T13:43:50.765Z,8.50
2022-12-11T13:46:35.436Z,8.40
2022-12-11T13:49:29.195Z,8.40
2022-12-11T13:52:22.981Z,8.30
2022-12-11T13:55:06.610Z,8.20
2022-12-11T13:58:05.916Z,8.20
2022-12-11T14:00:46.129Z,8.20
2022-12-11T14:03:24.265Z,8.30
2022-12-11T14:06:28.798Z,8.20
2022-12-11T14:09:12.131Z,8.20
2022-12-11T14:12:03.345Z,8.20
2022-12-11T14:15:07.715Z,8.30
2022-12-11T14:17:51.643Z,8.20
2022-12-11T14:20:40.975Z,8.30
2022-12-11T14:23:42.922Z,8.20
2022-12-11T14:27:08.155Z,8.20
2022-12-11T14:29:59.056Z,8.20
2022-12-11T14:32:48.220Z,8.30
2022-12-11T14:35:39.355Z,8.20
2022-12-11T14:38:44.144Z,8.10
2022-12-11T14:41:47.335Z,8.00
2022-12-11T14:45:01.076Z,8.40
2022-12-11T14:47:56.008Z,8.40
2022-12-11T14:50:50.600Z,8.30
2022-12-11T14:53:39.957Z,8.30
2022-12-11T14:56:38.213Z,8.20
2022-12-11T14:59:34.949Z,8.10
2022-12-11T15:02:42.552Z,8.10
2022-12-11T15:05:40.502Z,8.20
2022-12-11T15:08:47.857Z,8.20
2022-12-11T15:11:42.446Z,8.10
2022-12-11T15:14:35.154Z,8.30
2022-12-11T15:17:32.501Z,8.30
2022-12-11T15:20:25.713Z,8.30
2022-12-11T15:23:24.763Z,8.30
2022-12-11T15:29:35.912Z,8.10
2022-12-11T15:32:27.416Z,8.10
2022-12-11T15:35:07.176Z,8.10
2022-12-11T15:37:56.642Z,8.00
2022-12-11T15:40:58.512Z,8.10
2022-12-11T15:43:51.787Z,8.30
2022-12-11T15:46:34.212Z,8.30
2022-12-11T15:49:33.932Z,8.30
2022-12-11T15:52:11.423Z,8.30
2022-12-11T15:54:48.545Z,8.30
2022-12-11T15:57:28.232Z,8.20
2022-12-11T16:00:20.920Z,8.20
2022-12-11T16:03:09.606Z,8.10
2022-12-11T16:05:59.528Z,8.00
2022-12-11T16:08:46.002Z,8.10
2022-12-11T16:11:56.659Z,8.10
2022-12-11T16:14:54.427Z,8.00
2022-12-11T16:17:47.752Z,8.10
2022-12-11T16:20:27.343Z,8.30
2022-12-11T16:23:19.478Z,8.30
2022-12-11T16:26:23.594Z,8.20
2022-12-11T16:29:13.718Z,8.10
2022-12-11T16:31:51.789Z,8.10
2022-12-11T16:34:56.607Z,8.00
2022-12-11T16:37:45.068Z,8.00
2022-12-11T16:43:36.928Z,8.10
2022-12-11T16:46:34.712Z,8.10
2022-12-11T16:52:25.815Z,8.30
2022-12-11T16:55:09.131Z,8.30
2022-12-11T16:58:25.117Z,8.20
2022-12-11T17:01:38.068Z,8.10
2022-12-11T17:04:54.028Z,8.10
2022-12-11T17:07:37.152Z,8.00
2022-12-11T17:11:40.075Z,8.00
2022-12-11T17:13:12.150Z,8.00
2022-12-11T17:15:56.410Z,8.10
2022-12-11T17:18:48.621Z,8.00
2022-12-11T17:21:49.908Z,8.20
2022-12-11T17:24:37.757Z,8.30
2022-12-11T17:27:22.158Z,8.20
2022-12-11T17:30:17.641Z,8.10
2022-12-11T17:33:25.885Z,8.00
2022-12-11T17:36:25.662Z,8.10
2022-12-11T17:39:16.666Z,8.10
2022-12-11T17:42:01.316Z,8.00
2022-12-11T17:45:02.392Z,8.00
2022-12-11T17:47:59.325Z,8.10
2022-12-11T17:50:41.848Z,8.20
2022-12-11T17:53:29.960Z,8.30
2022-12-11T17:56:19.997Z,8.30
2022-12-11T17:59:23.282Z,8.30
2022-12-11T18:02:26.456Z,8.20
2022-12-11T18:05:19.442Z,8.20
2022-12-11T18:08:12.291Z,7.90
2022-12-11T18:11:00.712Z,7.70
2022-12-11T18:17:40.873Z,8.00
2022-12-11T18:21:06.448Z,8.00
2022-12-11T18:27:28.867Z,8.10
2022-12-11T18:30:42.447Z,8.20
2022-12-11T18:37:10.503Z,8.10
2022-12-11T18:40:05.400Z,8.00
2022-12-11T18:43:28.759Z,8.00
2022-12-11T18:49:27.873Z,8.00
2022-12-11T18:52:15.600Z,8.10
2022-12-11T18:55:11.740Z,8.00
2022-12-11T18:58:13.123Z,8.20
2022-12-11T19:01:41.758Z,8.20
2022-12-11T19:04:50.402Z,8.20
2022-12-11T19:07:58.866Z,8.10
2022-12-11T19:11:03.239Z,7.90
2022-12-11T19:14:14.336Z,8.00
2022-12-11T19:17:10.798Z,7.90
2022-12-11T19:20:25.122Z,8.00
2022-12-11T19:23:42.446Z,8.00
2022-12-11T19:26:52.700Z,8.10
2022-12-11T19:30:01.323Z,8.20
2022-12-11T19:33:40.718Z,8.20
2022-12-11T19:36:52.062Z,8.20
2022-12-11T19:39:58.008Z,8.00
2022-12-11T19:42:47.780Z,7.90
2022-12-11T19:45:48.617Z,7.90
2022-12-11T19:48:25.318Z,8.00
2022-12-11T19:51:22.625Z,8.00
2022-12-11T19:54:24.871Z,8.00
2022-12-11T19:57:04.827Z,8.00
2022-12-11T19:59:57.553Z,8.10
2022-12-11T20:03:04.262Z,8.20
2022-12-11T20:05:41.826Z,8.20
2022-12-11T20:08:49.197Z,8.10
2022-12-11T20:11:43.375Z,8.00
2022-12-11T20:14:34.267Z,7.90
2022-12-11T20:17:14.558Z,7.80
2022-12-11T20:19:52.371Z,7.80
2022-12-11T20:22:50.035Z,8.00
2022-12-11T20:25:40.175Z,8.00
2022-12-11T20:28:25.927Z,7.90
2022-12-11T20:31:02.805Z,7.90
2022-12-11T20:33:45.775Z,8.10
2022-12-11T20:36:33.650Z,8.00
2022-12-11T20:39:09.401Z,8.10
2022-12-11T20:41:39.632Z,8.10
2022-12-11T20:44:37.094Z,8.00
2022-12-11T20:47:20.725Z,7.90
2022-12-11T20:50:13.733Z,7.90
2022-12-11T20:53:03.665Z,7.90
2022-12-11T20:55:42.796Z,8.00
2022-12-11T20:58:17.114Z,8.00
2022-12-11T21:00:59.854Z,7.90
2022-12-11T21:03:42.248Z,8.00
2022-12-11T21:06:18.273Z,8.10
2022-12-11T21:09:09.021Z,8.20
2022-12-11T21:11:53.832Z,8.10
2022-12-11T21:14:33.737Z,8.00
2022-12-11T21:17:22.984Z,8.00
2022-12-11T21:20:04.577Z,7.80
2022-12-11T21:22:41.651Z,7.90
2022-12-11T21:25:29.280Z,8.00
2022-12-11T21:28:06.597Z,7.90
2022-12-11T21:30:57.893Z,8.00
2022-12-11T21:33:39.639Z,7.90
2022-12-11T21:36:22.611Z,8.20
2022-12-11T21:39:06.739Z,8.20
2022-12-11T21:41:55.863Z,8.10
2022-12-11T21:47:38.836Z,7.90
2022-12-11T21:50:18.496Z,7.80
2022-12-11T21:52:50.397Z,7.90
2022-12-11T21:55:33.015Z,7.90
2022-12-11T21:58:19.102Z,7.90
2022-12-11T22:01:05.150Z,8.00
2022-12-11T22:03:59.066Z,8.00
2022-12-11T22:06:36.006Z,8.10
2022-12-11T22:09:17.487Z,8.10
2022-12-11T22:11:58.385Z,8.10
2022-12-11T22:14:33.503Z,8.00
2022-12-11T22:17:10.273Z,8.00
2022-12-11T22:19:58.923Z,8.00
2022-12-11T22:22:54.181Z,7.90
2022-12-11T22:25:30.434Z,7.80
2022-12-11T22:28:28.715Z,7.90
2022-12-11T22:31:11.143Z,7.80
2022-12-11T22:33:51.124Z,7.90
2022-12-11T22:36:26.680Z,7.90
2022-12-11T22:39:18.348Z,8.00
2022-12-11T22:42:02.348Z,8.10
2022-12-11T22:44:45.160Z,8.10
2022-12-11T22:47:48.818Z,8.10
2022-12-11T22:50:30.408Z,8.00
2022-12-11T22:53:05.343Z,7.90
2022-12-11T22:56:03.414Z,7.90
2022-12-11T22:58:39.730Z,7.90
2022-12-11T23:01:30.634Z,7.80
2022-12-11T23:04:16.313Z,7.90
2022-12-11T23:07:00.518Z,7.80
2022-12-11T23:09:38.634Z,7.80
2022-12-11T23:12:27.640Z,8.00
2022-12-11T23:15:16.761Z,8.10
2022-12-11T23:18:09.717Z,8.10
2022-12-11T23:20:50.938Z,8.00
2022-12-11T23:23:31.913Z,7.90
2022-12-11T23:26:36.631Z,7.80
2022-12-11T23:29:20.068Z,7.90
2022-12-11T23:32:02.426Z,7.80
2022-12-11T23:34:45.495Z,7.90
2022-12-11T23:37:21.658Z,7.80
2022-12-11T23:40:25.762Z,7.80
2022-12-11T23:43:00.209Z,8.00
2022-12-11T23:48:42.307Z,8.00
2022-12-11T23:51:28.254Z,7.80
2022-12-11T23:54:11.000Z,7.80
2022-12-11T23:56:46.359Z,7.80
2022-12-11T23:59:26.195Z,7.80
